sensor_id;sensor_type;location;lat;lon;timestamp;pressure;altitude;pressure_sealevel;temperature;humidity
46638;BME280;32365;46.938;7.390;2023-03-14T08:43:08;93852.44;;;8.51;78.54
46638;BME280;32365;46.938;7.390;2023-03-14T08:45:34;93848.69;;;9.00;78.29
46638;BME280;32365;46.938;7.390;2023-03-14T08:48:01;93841.75;;;9.11;75.87
46638;BME280;32365;46.938;7.390;2023-03-14T08:50:28;93843.31;;;9.01;75.75
46638;BME280;32365;46.938;7.390;2023-03-14T08:52:54;93853.91;;;9.15;76.36
46638;BME280;32365;46.938;7.390;2023-03-14T08:55:23;93869.91;;;9.22;75.94
46638;BME280;32365;46.938;7.390;2023-03-14T08:57:49;93857.94;;;8.85;74.94
46638;BME280;32365;46.938;7.390;2023-03-14T09:00:18;93859.81;;;9.05;75.95
46638;BME280;32365;46.938;7.390;2023-03-14T09:02:45;93858.81;;;9.22;75.70
46638;BME280;32365;46.938;7.390;2023-03-14T09:05:12;93867.88;;;9.35;74.90
46638;BME280;32365;46.938;7.390;2023-03-14T09:07:39;93873.78;;;9.20;75.13
46638;BME280;32365;46.938;7.390;2023-03-14T09:10:07;93883.59;;;9.13;75.29
46638;BME280;32365;46.938;7.390;2023-03-14T09:12:34;93886.91;;;9.03;75.55
46638;BME280;32365;46.938;7.390;2023-03-14T09:15:01;93895.25;;;9.46;76.70
46638;BME280;32365;46.938;7.390;2023-03-14T09:17:29;93890.34;;;9.39;75.51
46638;BME280;32365;46.938;7.390;2023-03-14T09:19:55;93897.25;;;9.03;77.42
46638;BME280;32365;46.938;7.390;2023-03-14T09:22:22;93906.97;;;8.85;80.48
46638;BME280;32365;46.938;7.390;2023-03-14T09:24:49;93912.97;;;8.43;81.65
46638;BME280;32365;46.938;7.390;2023-03-14T09:27:15;93907.91;;;8.15;83.99
46638;BME280;32365;46.938;7.390;2023-03-14T09:29:42;93919.50;;;8.18;84.75
46638;BME280;32365;46.938;7.390;2023-03-14T09:32:08;93932.75;;;8.70;84.12
46638;BME280;32365;46.938;7.390;2023-03-14T09:34:36;93932.47;;;8.71;83.52
46638;BME280;32365;46.938;7.390;2023-03-14T09:37:03;93942.75;;;8.66;81.63
46638;BME280;32365;46.938;7.390;2023-03-14T09:39:29;93939.97;;;8.73;81.27
46638;BME280;32365;46.938;7.390;2023-03-14T09:41:57;93946.09;;;8.61;80.82
46638;BME280;32365;46.938;7.390;2023-03-14T09:44:27;93948.66;;;8.56;81.83
46638;BME280;32365;46.938;7.390;2023-03-14T09:46:58;93963.13;;;8.25;81.81
46638;BME280;32365;46.938;7.390;2023-03-14T09:49:28;93965.50;;;7.94;83.67
46638;BME280;32365;46.938;7.390;2023-03-14T09:51:58;93972.09;;;7.57;86.20
46638;BME280;32365;46.938;7.390;2023-03-14T09:54:34;93974.94;;;7.55;89.54
46638;BME280;32365;46.938;7.390;2023-03-14T09:57:02;93980.47;;;7.20;90.37
46638;BME280;32365;46.938;7.390;2023-03-14T09:59:30;93992.72;;;6.90;92.87
46638;BME280;32365;46.938;7.390;2023-03-14T10:01:58;94001.66;;;6.66;94.03
46638;BME280;32365;46.938;7.390;2023-03-14T10:04:28;93993.22;;;6.48;96.98
46638;BME280;32365;46.938;7.390;2023-03-14T10:06:56;94012.38;;;6.40;97.74
46638;BME280;32365;46.938;7.390;2023-03-14T10:09:24;94020.09;;;6.23;97.34
46638;BME280;32365;46.938;7.390;2023-03-14T10:11:54;94007.25;;;6.23;99.14
46638;BME280;32365;46.938;7.390;2023-03-14T10:14:32;94021.88;;;6.23;100.00
46638;BME280;32365;46.938;7.390;2023-03-14T10:17:05;94022.72;;;6.11;100.00
46638;BME280;32365;46.938;7.390;2023-03-14T10:19:33;94022.69;;;5.94;100.00
46638;BME280;32365;46.938;7.390;2023-03-14T10:22:03;94024.28;;;5.83;100.00
46638;BME280;32365;46.938;7.390;2023-03-14T10:24:31;94033.38;;;5.74;100.00
46638;BME280;32365;46.938;7.390;2023-03-14T10:27:00;94036.03;;;5.79;100.00
46638;BME280;32365;46.938;7.390;2023-03-14T10:29:28;94046.22;;;5.74;100.00
46638;BME280;32365;46.938;7.390;2023-03-14T10:31:59;94040.53;;;5.72;100.00
46638;BME280;32365;46.938;7.390;2023-03-14T10:34:29;94044.34;;;5.69;100.00
46638;BME280;32365;46.938;7.390;2023-03-14T10:36:57;94057.28;;;5.75;100.00
46638;BME280;32365;46.938;7.390;2023-03-14T10:39:36;94059.16;;;5.79;100.00
46638;BME280;32365;46.938;7.390;2023-03-14T10:42:13;94074.47;;;5.74;100.00
46638;BME280;32365;46.938;7.390;2023-03-14T10:44:41;94073.91;;;5.72;100.00
46638;BME280;32365;46.938;7.390;2023-03-14T10:47:16;94078.03;;;5.73;100.00
46638;BME280;32365;46.938;7.390;2023-03-14T10:49:43;94080.47;;;5.80;100.00
46638;BME280;32365;46.938;7.390;2023-03-14T10:52:15;94101.13;;;5.85;100.00
46638;BME280;32365;46.938;7.390;2023-03-14T10:54:48;94114.91;;;6.08;100.00
46638;BME280;32365;46.938;7.390;2023-03-14T10:57:15;94133.78;;;6.01;100.00
46638;BME280;32365;46.938;7.390;2023-03-14T10:59:42;94149.00;;;6.03;100.00
46638;BME280;32365;46.938;7.390;2023-03-14T11:02:25;94179.16;;;6.08;100.00
46638;BME280;32365;46.938;7.390;2023-03-14T11:04:59;94185.06;;;5.96;100.00
46638;BME280;32365;46.938;7.390;2023-03-14T11:07:33;94201.28;;;5.85;100.00
46638;BME280;32365;46.938;7.390;2023-03-14T11:10:10;94208.31;;;5.78;100.00
46638;BME280;32365;46.938;7.390;2023-03-14T11:12:48;94219.84;;;5.75;100.00
46638;BME280;32365;46.938;7.390;2023-03-14T11:15:20;94230.00;;;5.70;100.00
46638;BME280;32365;46.938;7.390;2023-03-14T11:18:00;94238.03;;;5.62;100.00
46638;BME280;32365;46.938;7.390;2023-03-14T11:20:35;94241.50;;;5.67;100.00
46638;BME280;32365;46.938;7.390;2023-03-14T11:23:12;94258.78;;;5.48;100.00
46638;BME280;32365;46.938;7.390;2023-03-14T11:25:45;94278.63;;;5.17;100.00
46638;BME280;32365;46.938;7.390;2023-03-14T11:28:18;94273.59;;;4.99;100.00
46638;BME280;32365;46.938;7.390;2023-03-14T11:30:51;94269.47;;;4.98;100.00
46638;BME280;32365;46.938;7.390;2023-03-14T11:33:22;94265.44;;;5.02;100.00
46638;BME280;32365;46.938;7.390;2023-03-14T11:35:55;94270.81;;;5.12;100.00
46638;BME280;32365;46.938;7.390;2023-03-14T11:38:30;94285.34;;;5.18;100.00
46638;BME280;32365;46.938;7.390;2023-03-14T11:41:00;94296.38;;;5.19;100.00
46638;BME280;32365;46.938;7.390;2023-03-14T11:43:29;94296.16;;;5.20;100.00
46638;BME280;32365;46.938;7.390;2023-03-14T11:46:03;94305.53;;;5.27;100.00
46638;BME280;32365;46.938;7.390;2023-03-14T11:48:35;94309.66;;;5.28;100.00
46638;BME280;32365;46.938;7.390;2023-03-14T11:51:08;94302.34;;;5.43;100.00
46638;BME280;32365;46.938;7.390;2023-03-14T11:53:45;94321.53;;;5.52;100.00
46638;BME280;32365;46.938;7.390;2023-03-14T11:56:22;94329.81;;;5.66;100.00
46638;BME280;32365;46.938;7.390;2023-03-14T11:58:55;94335.06;;;5.72;100.00
46638;BME280;32365;46.938;7.390;2023-03-14T12:01:29;94331.84;;;5.64;100.00
46638;BME280;32365;46.938;7.390;2023-03-14T12:04:04;94339.41;;;5.59;100.00
46638;BME280;32365;46.938;7.390;2023-03-14T12:06:39;94352.34;;;5.52;100.00
46638;BME280;32365;46.938;7.390;2023-03-14T12:09:09;94361.84;;;5.52;100.00
46638;BME280;32365;46.938;7.390;2023-03-14T12:11:43;94366.38;;;5.38;100.00
46638;BME280;32365;46.938;7.390;2023-03-14T12:14:22;94370.97;;;5.48;100.00
46638;BME280;32365;46.938;7.390;2023-03-14T12:16:53;94381.31;;;5.29;99.49
46638;BME280;32365;46.938;7.390;2023-03-14T12:19:33;94393.22;;;5.23;99.95
46638;BME280;32365;46.938;7.390;2023-03-14T12:22:06;94387.31;;;5.23;100.00
46638;BME280;32365;46.938;7.390;2023-03-14T12:24:36;94387.38;;;5.47;100.00
46638;BME280;32365;46.938;7.390;2023-03-14T12:27:06;94390.53;;;5.61;98.68
46638;BME280;32365;46.938;7.390;2023-03-14T12:29:57;94391.94;;;5.45;96.98
46638;BME280;32365;46.938;7.390;2023-03-14T12:32:25;94405.50;;;5.52;94.70
46638;BME280;32365;46.938;7.390;2023-03-14T12:34:51;94405.63;;;5.69;96.55
46638;BME280;32365;46.938;7.390;2023-03-14T12:37:33;94420.00;;;5.58;94.31
46638;BME280;32365;46.938;7.390;2023-03-14T12:40:15;94426.94;;;5.69;95.67
46638;BME280;32365;46.938;7.390;2023-03-14T12:42:54;94426.53;;;5.42;92.51
46638;BME280;32365;46.938;7.390;2023-03-14T12:45:28;94432.75;;;5.34;93.65
46638;BME280;32365;46.938;7.390;2023-03-14T12:48:07;94440.13;;;5.31;90.67
46638;BME280;32365;46.938;7.390;2023-03-14T12:50:39;94446.75;;;5.50;91.84
46638;BME280;32365;46.938;7.390;2023-03-14T12:53:18;94442.78;;;5.66;89.10
46638;BME280;32365;46.938;7.390;2023-03-14T12:55:51;94444.53;;;5.96;91.26
46638;BME280;32365;46.938;7.390;2023-03-14T12:58:27;94449.28;;;6.35;85.76
46638;BME280;32365;46.938;7.390;2023-03-14T13:00:57;94452.53;;;6.42;85.25
46638;BME280;32365;46.938;7.390;2023-03-14T13:03:27;94462.13;;;6.71;81.00
46638;BME280;32365;46.938;7.390;2023-03-14T13:06:03;94466.88;;;7.15;82.34
46638;BME280;32365;46.938;7.390;2023-03-14T13:08:36;94472.38;;;7.64;80.58
46638;BME280;32365;46.938;7.390;2023-03-14T13:11:06;94460.31;;;7.36;77.90
46638;BME280;32365;46.938;7.390;2023-03-14T13:13:37;94459.00;;;7.79;77.96
46638;BME280;32365;46.938;7.390;2023-03-14T13:16:12;94454.19;;;8.00;74.61
46638;BME280;32365;46.938;7.390;2023-03-14T13:18:44;94456.03;;;8.39;75.12
46638;BME280;32365;46.938;7.390;2023-03-14T13:21:13;94457.22;;;8.87;74.19
46638;BME280;32365;46.938;7.390;2023-03-14T13:23:54;94456.81;;;8.73;71.90
46638;BME280;32365;46.938;7.390;2023-03-14T13:26:21;94452.75;;;8.26;73.01
46638;BME280;32365;46.938;7.390;2023-03-14T13:28:50;94471.22;;;9.36;70.38
46638;BME280;32365;46.938;7.390;2023-03-14T13:31:21;94461.50;;;8.76;72.32
46638;BME280;32365;46.938;7.390;2023-03-14T13:33:56;94470.25;;;7.90;71.47
46638;BME280;32365;46.938;7.390;2023-03-14T13:36:23;94473.44;;;7.63;74.21
46638;BME280;32365;46.938;7.390;2023-03-14T13:38:55;94480.94;;;7.53;72.36
46638;BME280;32365;46.938;7.390;2023-03-14T13:41:23;94475.03;;;7.52;72.00
46638;BME280;32365;46.938;7.390;2023-03-14T13:43:51;94482.84;;;7.29;74.42
46638;BME280;32365;46.938;7.390;2023-03-14T13:46:20;94474.22;;;7.23;73.32
46638;BME280;32365;46.938;7.390;2023-03-14T13:48:49;94484.91;;;7.15;74.63
46638;BME280;32365;46.938;7.390;2023-03-14T13:51:18;94478.56;;;7.34;72.02
46638;BME280;32365;46.938;7.390;2023-03-14T13:53:47;94473.09;;;7.31;73.66
46638;BME280;32365;46.938;7.390;2023-03-14T13:56:14;94477.50;;;7.18;72.16
46638;BME280;32365;46.938;7.390;2023-03-14T13:58:41;94470.06;;;6.69;72.60
46638;BME280;32365;46.938;7.390;2023-03-14T14:01:14;94488.97;;;6.75;73.76
46638;BME280;32365;46.938;7.390;2023-03-14T14:03:44;94493.66;;;6.54;71.68
46638;BME280;32365;46.938;7.390;2023-03-14T14:06:22;94479.56;;;6.33;73.65
46638;BME280;32365;46.938;7.390;2023-03-14T14:08:50;94476.69;;;6.41;73.04
46638;BME280;32365;46.938;7.390;2023-03-14T14:11:21;94475.44;;;6.56;76.27
46638;BME280;32365;46.938;7.390;2023-03-14T14:13:49;94476.91;;;6.75;75.29
46638;BME280;32365;46.938;7.390;2023-03-14T14:16:22;94473.75;;;6.73;75.54
46638;BME280;32365;46.938;7.390;2023-03-14T14:18:51;94477.22;;;6.91;75.48
46638;BME280;32365;46.938;7.390;2023-03-14T14:21:19;94482.00;;;6.99;74.22
46638;BME280;32365;46.938;7.390;2023-03-14T14:23:46;94488.13;;;7.22;73.17
46638;BME280;32365;46.938;7.390;2023-03-14T14:26:14;94482.16;;;7.33;74.20
46638;BME280;32365;46.938;7.390;2023-03-14T14:28:42;94479.81;;;7.32;73.56
46638;BME280;32365;46.938;7.390;2023-03-14T14:31:20;94476.56;;;7.82;72.72
46638;BME280;32365;46.938;7.390;2023-03-14T14:33:54;94465.81;;;8.02;68.68
46638;BME280;32365;46.938;7.390;2023-03-14T14:36:23;94464.19;;;7.96;69.03
46638;BME280;32365;46.938;7.390;2023-03-14T14:38:56;94464.81;;;8.04;69.42
46638;BME280;32365;46.938;7.390;2023-03-14T14:41:27;94472.03;;;7.73;69.92
46638;BME280;32365;46.938;7.390;2023-03-14T14:43:53;94475.31;;;7.68;72.51
46638;BME280;32365;46.938;7.390;2023-03-14T14:46:21;94478.28;;;7.48;73.46
46638;BME280;32365;46.938;7.390;2023-03-14T14:48:48;94466.56;;;7.40;72.97
46638;BME280;32365;46.938;7.390;2023-03-14T14:51:30;94464.88;;;7.34;72.49
46638;BME280;32365;46.938;7.390;2023-03-14T14:54:03;94476.00;;;7.22;74.83
46638;BME280;32365;46.938;7.390;2023-03-14T14:56:35;94472.22;;;7.13;78.05
46638;BME280;32365;46.938;7.390;2023-03-14T14:59:02;94479.97;;;7.13;81.08
46638;BME280;32365;46.938;7.390;2023-03-14T15:01:34;94482.38;;;6.91;83.59
46638;BME280;32365;46.938;7.390;2023-03-14T15:04:04;94479.56;;;6.81;83.85
46638;BME280;32365;46.938;7.390;2023-03-14T15:06:35;94491.53;;;6.75;85.71
46638;BME280;32365;46.938;7.390;2023-03-14T15:09:02;94483.59;;;6.65;85.52
46638;BME280;32365;46.938;7.390;2023-03-14T15:11:28;94473.31;;;6.65;84.97
46638;BME280;32365;46.938;7.390;2023-03-14T15:13:55;94472.63;;;6.69;85.54
46638;BME280;32365;46.938;7.390;2023-03-14T15:16:25;94466.97;;;6.67;85.02
46638;BME280;32365;46.938;7.390;2023-03-14T15:18:56;94470.41;;;6.61;85.13
46638;BME280;32365;46.938;7.390;2023-03-14T15:21:24;94459.44;;;6.77;85.03
46638;BME280;32365;46.938;7.390;2023-03-14T15:23:51;94464.03;;;6.75;84.67
46638;BME280;32365;46.938;7.390;2023-03-14T15:26:19;94466.50;;;6.82;84.99
46638;BME280;32365;46.938;7.390;2023-03-14T15:28:46;94470.28;;;6.91;84.26
46638;BME280;32365;46.938;7.390;2023-03-14T15:31:14;94462.22;;;6.88;85.04
46638;BME280;32365;46.938;7.390;2023-03-14T15:33:43;94471.16;;;6.97;85.48
46638;BME280;32365;46.938;7.390;2023-03-14T15:36:19;94466.81;;;6.86;86.88
46638;BME280;32365;46.938;7.390;2023-03-14T15:38:45;94471.75;;;6.75;87.40
46638;BME280;32365;46.938;7.390;2023-03-14T15:41:12;94469.75;;;6.66;88.48
46638;BME280;32365;46.938;7.390;2023-03-14T15:43:40;94473.88;;;6.67;88.65
46638;BME280;32365;46.938;7.390;2023-03-14T15:46:08;94487.09;;;6.58;90.44
46638;BME280;32365;46.938;7.390;2023-03-14T15:48:34;94502.28;;;6.48;89.86
46638;BME280;32365;46.938;7.390;2023-03-14T15:51:01;94517.97;;;6.04;91.31
46638;BME280;32365;46.938;7.390;2023-03-14T15:53:29;94517.31;;;5.78;94.13
46638;BME280;32365;46.938;7.390;2023-03-14T15:55:55;94529.38;;;5.10;92.68
46638;BME280;32365;46.938;7.390;2023-03-14T15:58:22;94530.78;;;4.87;95.01
46638;BME280;32365;46.938;7.390;2023-03-14T16:00:49;94525.41;;;4.70;96.48
46638;BME280;32365;46.938;7.390;2023-03-14T16:03:16;94527.25;;;4.63;97.16
46638;BME280;32365;46.938;7.390;2023-03-14T16:05:43;94541.06;;;4.62;97.39
46638;BME280;32365;46.938;7.390;2023-03-14T16:08:09;94541.44;;;4.66;98.16
46638;BME280;32365;46.938;7.390;2023-03-14T16:10:37;94541.69;;;4.57;97.12
46638;BME280;32365;46.938;7.390;2023-03-14T16:13:05;94543.63;;;4.62;97.02
46638;BME280;32365;46.938;7.390;2023-03-14T16:15:31;94543.53;;;4.75;97.99
46638;BME280;32365;46.938;7.390;2023-03-14T16:17:58;94534.91;;;4.70;97.02
46638;BME280;32365;46.938;7.390;2023-03-14T16:20:24;94532.00;;;4.85;97.49
46638;BME280;32365;46.938;7.390;2023-03-14T16:22:52;94538.84;;;4.91;97.36
46638;BME280;32365;46.938;7.390;2023-03-14T16:25:19;94539.19;;;4.95;97.35
46638;BME280;32365;46.938;7.390;2023-03-14T16:27:46;94540.03;;;4.88;95.63
46638;BME280;32365;46.938;7.390;2023-03-14T16:30:14;94544.16;;;4.89;94.33
46638;BME280;32365;46.938;7.390;2023-03-14T16:32:40;94550.63;;;4.99;95.97
46638;BME280;32365;46.938;7.390;2023-03-14T16:35:07;94546.25;;;4.99;94.87
46638;BME280;32365;46.938;7.390;2023-03-14T16:37:34;94543.69;;;4.99;95.30
46638;BME280;32365;46.938;7.390;2023-03-14T16:40:00;94554.88;;;5.05;92.61
46638;BME280;32365;46.938;7.390;2023-03-14T16:42:27;94557.03;;;5.08;93.36
46638;BME280;32365;46.938;7.390;2023-03-14T16:44:54;94566.50;;;5.07;93.04
46638;BME280;32365;46.938;7.390;2023-03-14T16:47:21;94568.69;;;5.04;92.65
46638;BME280;32365;46.938;7.390;2023-03-14T16:49:47;94573.28;;;5.20;92.47
46638;BME280;32365;46.938;7.390;2023-03-14T16:52:14;94570.84;;;5.26;92.97
46638;BME280;32365;46.938;7.390;2023-03-14T16:54:40;94568.84;;;5.28;91.70
46638;BME280;32365;46.938;7.390;2023-03-14T16:57:07;94573.06;;;5.22;92.84
46638;BME280;32365;46.938;7.390;2023-03-14T16:59:33;94582.19;;;5.18;92.42
46638;BME280;32365;46.938;7.390;2023-03-14T17:02:01;94581.97;;;5.19;92.90
46638;BME280;32365;46.938;7.390;2023-03-14T17:04:28;94584.84;;;5.30;91.77
46638;BME280;32365;46.938;7.390;2023-03-14T17:06:55;94597.78;;;5.16;91.37
46638;BME280;32365;46.938;7.390;2023-03-14T17:09:21;94598.16;;;5.20;92.53
46638;BME280;32365;46.938;7.390;2023-03-14T17:11:48;94608.63;;;5.18;93.14
46638;BME280;32365;46.938;7.390;2023-03-14T17:14:14;94608.00;;;5.23;92.79
46638;BME280;32365;46.938;7.390;2023-03-14T17:16:41;94620.53;;;5.13;93.91
46638;BME280;32365;46.938;7.390;2023-03-14T17:19:08;94622.16;;;5.07;93.77
46638;BME280;32365;46.938;7.390;2023-03-14T17:21:35;94635.13;;;5.12;93.89
46638;BME280;32365;46.938;7.390;2023-03-14T17:24:02;94632.00;;;5.10;92.69
46638;BME280;32365;46.938;7.390;2023-03-14T17:26:28;94635.25;;;4.99;92.77
46638;BME280;32365;46.938;7.390;2023-03-14T17:28:55;94633.41;;;5.06;91.73
46638;BME280;32365;46.938;7.390;2023-03-14T17:31:21;94644.31;;;5.01;92.20
46638;BME280;32365;46.938;7.390;2023-03-14T17:33:48;94642.56;;;4.95;89.43
46638;BME280;32365;46.938;7.390;2023-03-14T17:36:18;94653.22;;;4.99;90.39
46638;BME280;32365;46.938;7.390;2023-03-14T17:38:45;94653.81;;;4.94;89.27
46638;BME280;32365;46.938;7.390;2023-03-14T17:41:13;94672.00;;;4.92;89.73
46638;BME280;32365;46.938;7.390;2023-03-14T17:43:40;94669.44;;;4.92;88.53
46638;BME280;32365;46.938;7.390;2023-03-14T17:46:09;94686.22;;;4.88;89.42
46638;BME280;32365;46.938;7.390;2023-03-14T17:48:40;94684.09;;;4.85;88.67
46638;BME280;32365;46.938;7.390;2023-03-14T17:51:07;94695.34;;;4.84;88.56
46638;BME280;32365;46.938;7.390;2023-03-14T17:53:35;94707.22;;;4.78;88.73
46638;BME280;32365;46.938;7.390;2023-03-14T17:56:02;94715.09;;;4.77;88.57
46638;BME280;32365;46.938;7.390;2023-03-14T17:58:29;94709.63;;;4.73;88.55
46638;BME280;32365;46.938;7.390;2023-03-14T18:01:07;94714.19;;;4.65;88.68
46638;BME280;32365;46.938;7.390;2023-03-14T18:03:33;94719.09;;;4.73;88.96
46638;BME280;32365;46.938;7.390;2023-03-14T18:06:03;94723.44;;;4.72;89.59
46638;BME280;32365;46.938;7.390;2023-03-14T18:08:30;94727.94;;;4.77;88.74
46638;BME280;32365;46.938;7.390;2023-03-14T18:10:58;94739.03;;;4.71;89.35
46638;BME280;32365;46.938;7.390;2023-03-14T18:13:24;94727.78;;;4.72;88.96
46638;BME280;32365;46.938;7.390;2023-03-14T18:15:51;94733.91;;;4.71;88.83
46638;BME280;32365;46.938;7.390;2023-03-14T18:18:17;94740.78;;;4.70;88.41
46638;BME280;32365;46.938;7.390;2023-03-14T18:20:48;94745.63;;;4.53;89.19
46638;BME280;32365;46.938;7.390;2023-03-14T18:23:15;94758.66;;;4.52;89.90
46638;BME280;32365;46.938;7.390;2023-03-14T18:25:41;94769.84;;;4.57;89.28
46638;BME280;32365;46.938;7.390;2023-03-14T18:28:09;94768.16;;;4.44;90.12
46638;BME280;32365;46.938;7.390;2023-03-14T18:30:36;94766.63;;;4.30;88.65
46638;BME280;32365;46.938;7.390;2023-03-14T18:33:03;94771.56;;;4.25;90.10
46638;BME280;32365;46.938;7.390;2023-03-14T18:35:29;94781.44;;;4.21;90.72
46638;BME280;32365;46.938;7.390;2023-03-14T18:37:56;94779.69;;;4.08;91.75
46638;BME280;32365;46.938;7.390;2023-03-14T18:40:22;94791.13;;;3.99;91.03
46638;BME280;32365;46.938;7.390;2023-03-14T18:42:49;94799.78;;;3.98;91.90
46638;BME280;32365;46.938;7.390;2023-03-14T18:45:17;94799.63;;;3.93;91.51
46638;BME280;32365;46.938;7.390;2023-03-14T18:47:43;94801.41;;;3.85;91.37
46638;BME280;32365;46.938;7.390;2023-03-14T18:50:11;94799.44;;;3.88;90.76
46638;BME280;32365;46.938;7.390;2023-03-14T18:52:37;94805.75;;;3.78;91.62
46638;BME280;32365;46.938;7.390;2023-03-14T18:55:04;94794.91;;;3.90;91.18
46638;BME280;32365;46.938;7.390;2023-03-14T18:57:31;94802.38;;;3.98;89.26
46638;BME280;32365;46.938;7.390;2023-03-14T18:59:57;94800.81;;;3.97;88.27
46638;BME280;32365;46.938;7.390;2023-03-14T19:02:26;94801.78;;;3.96;87.84
46638;BME280;32365;46.938;7.390;2023-03-14T19:04:52;94807.69;;;3.96;88.06
46638;BME280;32365;46.938;7.390;2023-03-14T19:07:19;94812.59;;;3.98;87.76
46638;BME280;32365;46.938;7.390;2023-03-14T19:09:47;94815.56;;;4.08;87.87
46638;BME280;32365;46.938;7.390;2023-03-14T19:12:14;94813.78;;;4.02;87.12
46638;BME280;32365;46.938;7.390;2023-03-14T19:14:42;94811.25;;;3.89;85.97
46638;BME280;32365;46.938;7.390;2023-03-14T19:17:08;94816.56;;;4.00;85.81
46638;BME280;32365;46.938;7.390;2023-03-14T19:19:36;94820.28;;;3.91;84.86
46638;BME280;32365;46.938;7.390;2023-03-14T19:22:03;94806.13;;;3.82;85.92
46638;BME280;32365;46.938;7.390;2023-03-14T19:24:29;94806.94;;;3.76;86.17
46638;BME280;32365;46.938;7.390;2023-03-14T19:26:56;94819.16;;;3.74;85.69
46638;BME280;32365;46.938;7.390;2023-03-14T19:29:22;94815.41;;;3.76;86.07
46638;BME280;32365;46.938;7.390;2023-03-14T19:31:49;94813.63;;;3.83;85.70
46638;BME280;32365;46.938;7.390;2023-03-14T19:34:15;94834.69;;;3.85;85.56
46638;BME280;32365;46.938;7.390;2023-03-14T19:36:43;94825.47;;;3.78;85.94
46638;BME280;32365;46.938;7.390;2023-03-14T19:39:10;94827.22;;;3.70;86.64
46638;BME280;32365;46.938;7.390;2023-03-14T19:41:36;94829.59;;;3.65;87.23
46638;BME280;32365;46.938;7.390;2023-03-14T19:44:03;94830.56;;;3.64;87.36
46638;BME280;32365;46.938;7.390;2023-03-14T19:46:30;94829.38;;;3.67;86.80
46638;BME280;32365;46.938;7.390;2023-03-14T19:48:58;94833.53;;;3.61;87.34
46638;BME280;32365;46.938;7.390;2023-03-14T19:51:25;94831.75;;;3.55;88.03
46638;BME280;32365;46.938;7.390;2023-03-14T19:53:53;94833.13;;;3.51;87.97
46638;BME280;32365;46.938;7.390;2023-03-14T19:56:19;94832.34;;;3.57;87.77
46638;BME280;32365;46.938;7.390;2023-03-14T19:58:48;94842.19;;;3.60;86.99
46638;BME280;32365;46.938;7.390;2023-03-14T20:01:15;94851.84;;;3.72;86.77
46638;BME280;32365;46.938;7.390;2023-03-14T20:03:41;94850.63;;;3.67;86.24
46638;BME280;32365;46.938;7.390;2023-03-14T20:06:10;94855.19;;;3.79;85.05
46638;BME280;32365;46.938;7.390;2023-03-14T20:08:37;94858.91;;;3.76;84.86
46638;BME280;32365;46.938;7.390;2023-03-14T20:11:05;94845.72;;;3.86;84.64
46638;BME280;32365;46.938;7.390;2023-03-14T20:13:32;94862.06;;;3.92;83.74
46638;BME280;32365;46.938;7.390;2023-03-14T20:15:59;94846.09;;;3.96;82.82
46638;BME280;32365;46.938;7.390;2023-03-14T20:18:28;94838.03;;;3.99;82.98
46638;BME280;32365;46.938;7.390;2023-03-14T20:20:55;94845.50;;;4.01;82.37
